Date,TemperatureHighF,TemperatureAvgF,TemperatureLowF,DewpointHighF,DewpointAvgF,DewpointLowF,HumidityHigh,HumidityAvg,HumidityLow,PressureMaxIn,PressureMinIn,WindSpeedMaxMPH,WindSpeedAvgMPH,GustSpeedMaxMPH,PrecipitationSumIn
2013-1-1,52,48,44,50,42,28,96,80,49,30.10,29.93,3,0,5,0.20
2013-1-2,51,46,41,50,43,38,97,91,78,30.18,29.90,5,0,7,0.25
2013-1-3,45,41,33,38,36,29,92,83,64,30.25,30.12,1,0,4,0.00
2013-1-4,51,39,28,31,26,23,93,65,34,30.30,30.18,3,0,9,0.00
2013-1-5,51,40,29,30,26,22,79,58,35,30.38,30.27,2,0,5,0.00
2013-1-6,49,43,36,41,36,29,91,75,58,30.27,30.05,2,0,5,0.02
2013-1-7,52,40,31,35,32,28,93,74,46,30.43,30.16,5,0,9,0.00
2013-1-8,57,43,31,43,36,29,95,78,51,30.45,30.35,1,0,5,0.00
2013-1-9,68,51,37,52,44,35,97,78,53,30.43,30.34,3,0,6,0.00
2013-1-10,63,54,46,50,46,38,96,76,56,30.51,30.40,2,0,5,0.00
2013-1-11,53,49,43,52,44,33,97,85,53,30.43,30.14,1,0,5,0.30
2013-1-12,71,58,50,63,55,49,99,92,76,30.16,30.09,2,0,6,0.00
2013-1-13,75,62,53,62,57,52,99,85,60,30.13,30.05,3,0,7,0.01
2013-1-14,73,64,56,64,60,54,96,86,71,30.15,30.07,3,0,7,0.00
2013-1-15,64,49,46,60,48,45,97,94,84,30.20,30.04,5,0,9,0.01
2013-1-16,51,48,45,51,47,45,99,98,97,30.05,29.97,2,0,6,0.17
2013-1-17,52,48,34,52,47,34,99,98,96,30.13,29.85,9,1,15,0.74
2013-1-18,47,37,30,37,30,23,98,78,41,30.54,30.12,5,0,7,0.04
2013-1-19,54,36,27,37,28,24,92,74,33,30.50,30.16,2,0,5,0.00
2013-1-20,64,49,40,38,35,32,77,60,32,30.16,29.97,5,0,9,0.00
2013-1-21,60,45,31,37,30,20,95,60,30,30.07,29.87,3,0,12,0.00
2013-1-22,43,35,27,23,10,-1,63,37,18,30.28,29.95,5,1,12,0.00
2013-1-23,41,30,20,18,11,2,78,47,27,30.37,30.06,3,0,8,0.00
2013-1-24,38,33,25,28,16,4,78,52,26,30.51,29.95,8,1,14,0.00
2013-1-25,28,25,21,25,15,5,90,69,41,30.51,30.11,1,0,5,0.06
2013-1-26,41,31,26,36,28,24,95,89,67,30.40,30.09,2,0,5,0.03
2013-1-27,41,33,28,31,28,26,96,81,59,30.59,30.39,3,0,8,0.05
2013-1-28,53,43,33,49,37,28,88,79,67,30.51,30.23,2,0,7,0.06
2013-1-29,74,59,49,58,52,45,93,78,53,30.23,30.06,5,1,12,0.00
2013-1-30,72,67,58,65,62,55,96,85,72,30.06,29.40,9,3,20,0.12
2013-1-31,65,48,35,61,32,18,89,57,28,30.01,29.47,8,3,18,0.14